createdAt,value
2017-12-06T00:01:45.845Z,15.27
2017-12-06T00:04:16.040Z,16.27
2017-12-06T00:06:45.459Z,16.30
2017-12-06T00:09:14.908Z,16.53
2017-12-06T00:11:44.664Z,16.80
2017-12-06T00:14:19.555Z,18.07
2017-12-06T00:16:49.004Z,17.50
2017-12-06T00:19:18.730Z,17.47
2017-12-06T00:21:48.739Z,16.70
2017-12-06T00:24:19.114Z,17.27
2017-12-06T00:26:48.577Z,16.97
2017-12-06T00:29:18.023Z,17.27
2017-12-06T00:31:47.961Z,18.20
2017-12-06T00:34:17.191Z,18.00
2017-12-06T00:36:46.448Z,17.20
2017-12-06T00:39:15.889Z,18.23
2017-12-06T00:41:45.117Z,18.27
2017-12-06T00:44:14.590Z,17.73
2017-12-06T00:46:44.343Z,18.77
2017-12-06T00:49:13.822Z,16.37
2017-12-06T00:51:43.254Z,17.30
2017-12-06T00:54:13.026Z,17.77
2017-12-06T00:56:42.585Z,18.43
2017-12-06T00:59:12.043Z,17.30
2017-12-06T01:01:41.620Z,17.93
2017-12-06T01:04:11.045Z,16.97
2017-12-06T01:06:41.612Z,16.33
2017-12-06T01:09:11.035Z,17.10
2017-12-06T01:11:40.481Z,16.77
2017-12-06T01:14:10.079Z,16.33
2017-12-06T01:16:39.404Z,17.87
2017-12-06T01:19:08.812Z,17.27
2017-12-06T01:21:38.641Z,17.73
2017-12-06T01:24:08.074Z,17.87
2017-12-06T01:26:37.494Z,17.30
2017-12-06T01:29:06.990Z,16.77
2017-12-06T01:31:36.435Z,17.47
2017-12-06T01:34:05.875Z,17.97
2017-12-06T01:36:36.341Z,17.23
2017-12-06T01:39:05.479Z,16.47
2017-12-06T01:41:34.933Z,18.53
2017-12-06T01:44:05.515Z,17.07
2017-12-06T01:46:34.787Z,17.17
2017-12-06T01:49:04.677Z,18.00
2017-12-06T01:51:34.115Z,17.43
2017-12-06T01:54:03.211Z,17.90
2017-12-06T01:56:32.312Z,17.63
2017-12-06T01:59:02.001Z,17.23
2017-12-06T02:01:31.084Z,18.10
2017-12-06T02:04:01.282Z,16.80
2017-12-06T02:06:30.726Z,18.07
2017-12-06T02:09:00.978Z,16.23
2017-12-06T02:11:30.295Z,18.60
2017-12-06T02:13:59.735Z,16.77
2017-12-06T02:16:28.503Z,17.70
2017-12-06T02:18:58.239Z,17.57
2017-12-06T02:21:27.005Z,18.33
2017-12-06T02:23:56.584Z,17.33
2017-12-06T02:26:25.586Z,18.57
2017-12-06T02:28:54.223Z,16.57
2017-12-06T02:31:23.631Z,17.17
2017-12-06T02:33:53.321Z,18.10
2017-12-06T02:36:22.771Z,17.93
2017-12-06T02:38:52.307Z,18.20
2017-12-06T02:41:33.921Z,17.27
2017-12-06T02:44:14.436Z,16.27
2017-12-06T02:46:44.046Z,17.50
2017-12-06T02:49:13.142Z,16.50
2017-12-06T02:51:42.704Z,18.37
2017-12-06T02:54:12.623Z,18.83
2017-12-06T02:56:42.206Z,18.30
2017-12-06T02:59:11.650Z,16.80
2017-12-06T03:01:41.294Z,17.30
2017-12-06T03:04:10.173Z,17.17
2017-12-06T03:06:39.584Z,18.47
2017-12-06T03:09:09.378Z,19.23
2017-12-06T03:11:39.866Z,18.40
2017-12-06T03:14:09.379Z,17.20
2017-12-06T03:16:38.819Z,16.10
2017-12-06T03:19:09.046Z,17.13
2017-12-06T03:21:38.687Z,17.27
2017-12-06T03:24:09.251Z,16.70
2017-12-06T03:26:38.739Z,16.63
2017-12-06T03:29:09.247Z,18.70
2017-12-06T03:31:38.683Z,16.97
2017-12-06T03:34:08.975Z,18.13
2017-12-06T03:36:38.194Z,16.90
2017-12-06T03:39:07.623Z,17.97
2017-12-06T03:41:37.415Z,17.47
2017-12-06T03:44:06.833Z,18.57
2017-12-06T03:46:36.257Z,16.83
2017-12-06T03:49:06.151Z,16.87
2017-12-06T03:51:35.625Z,16.63
2017-12-06T03:54:05.051Z,17.37
2017-12-06T03:56:34.835Z,16.03
2017-12-06T03:59:04.074Z,16.37
2017-12-06T04:01:33.611Z,16.63
2017-12-06T04:04:03.825Z,16.40
2017-12-06T04:06:33.267Z,17.00
2017-12-06T04:09:03.211Z,15.07
2017-12-06T04:11:32.667Z,15.97
2017-12-06T04:14:01.939Z,15.00
2017-12-06T04:16:32.306Z,15.27
2017-12-06T04:19:01.787Z,14.70
2017-12-06T04:21:31.216Z,15.77
2017-12-06T04:24:00.687Z,14.93
2017-12-06T04:26:30.110Z,14.77
2017-12-06T04:28:59.570Z,14.57
2017-12-06T04:31:29.401Z,15.33
2017-12-06T04:33:58.831Z,13.77
2017-12-06T04:36:28.270Z,14.50
2017-12-06T04:38:58.072Z,15.77
2017-12-06T04:41:27.500Z,13.93
2017-12-06T04:43:56.945Z,15.00
2017-12-06T04:46:27.175Z,13.73
2017-12-06T04:48:57.423Z,14.63
2017-12-06T04:51:27.989Z,13.50
2017-12-06T04:53:57.466Z,13.67
2017-12-06T04:56:26.942Z,13.30
2017-12-06T04:58:56.969Z,13.13
2017-12-06T05:01:26.394Z,13.33
2017-12-06T05:03:55.848Z,13.87
2017-12-06T05:06:26.082Z,13.00
2017-12-06T05:08:56.679Z,11.67
2017-12-06T05:11:26.129Z,13.60
2017-12-06T05:13:55.588Z,13.00
2017-12-06T05:16:25.444Z,13.03
2017-12-06T05:18:54.895Z,12.63
2017-12-06T05:21:24.346Z,12.20
2017-12-06T05:23:54.366Z,11.73
2017-12-06T05:26:24.561Z,11.70
2017-12-06T05:28:54.325Z,12.17
2017-12-06T05:31:23.812Z,12.00
2017-12-06T05:33:53.242Z,11.40
2017-12-06T05:36:24.015Z,12.10
2017-12-06T05:38:55.016Z,11.33
2017-12-06T05:41:24.137Z,11.63
2017-12-06T05:43:53.339Z,10.53
2017-12-06T05:46:22.778Z,11.57
2017-12-06T05:48:53.344Z,11.63
2017-12-06T05:51:22.808Z,11.73
2017-12-06T05:53:52.243Z,12.23
2017-12-06T05:56:22.826Z,11.63
2017-12-06T05:58:52.384Z,11.23
2017-12-06T06:01:21.870Z,11.37
2017-12-06T06:03:52.229Z,10.67
2017-12-06T06:06:21.660Z,11.53
2017-12-06T06:08:51.092Z,11.40
2017-12-06T06:11:21.650Z,11.30
2017-12-06T06:13:51.070Z,11.10
2017-12-06T06:16:20.526Z,10.40
2017-12-06T06:18:49.947Z,10.73
2017-12-06T06:21:19.362Z,11.50
2017-12-06T06:23:49.141Z,10.73
2017-12-06T06:26:19.071Z,10.53
2017-12-06T06:28:48.535Z,9.93
2017-12-06T06:31:17.996Z,11.10
2017-12-06T06:33:47.510Z,11.13
2017-12-06T06:36:16.983Z,10.93
2017-12-06T06:38:46.405Z,10.33
2017-12-06T06:41:15.848Z,11.37
2017-12-06T06:43:45.340Z,10.57
2017-12-06T06:46:15.131Z,9.97
2017-12-06T06:48:44.931Z,9.77
2017-12-06T06:51:14.362Z,11.00
2017-12-06T06:53:43.824Z,10.10
2017-12-06T06:56:14.009Z,10.27
2017-12-06T06:58:43.500Z,10.83
2017-12-06T07:01:12.984Z,10.53
2017-12-06T07:03:42.661Z,9.53
2017-12-06T07:06:12.186Z,9.50
2017-12-06T07:08:41.575Z,9.43
2017-12-06T07:11:11.222Z,9.30
2017-12-06T07:13:40.662Z,9.30
2017-12-06T07:16:10.099Z,10.00
2017-12-06T07:18:39.886Z,9.73
2017-12-06T07:21:09.349Z,10.23
2017-12-06T07:23:38.968Z,9.57
2017-12-06T07:26:09.199Z,9.50
2017-12-06T07:28:38.464Z,10.27
2017-12-06T07:31:07.758Z,9.67
2017-12-06T07:33:37.983Z,10.03
2017-12-06T07:36:07.432Z,9.37
2017-12-06T07:38:36.852Z,10.80
2017-12-06T07:41:06.756Z,9.90
2017-12-06T07:43:36.490Z,11.43
2017-12-06T07:46:05.920Z,10.63
2017-12-06T07:48:35.511Z,10.40
2017-12-06T07:51:05.005Z,9.67
2017-12-06T07:53:35.571Z,10.63
2017-12-06T07:56:05.063Z,10.90
2017-12-06T07:58:40.641Z,11.17
2017-12-06T08:01:10.914Z,10.40
2017-12-06T08:03:40.744Z,11.17
2017-12-06T08:06:10.156Z,10.63
2017-12-06T08:08:39.641Z,10.10
2017-12-06T08:11:09.464Z,9.90
2017-12-06T08:13:38.958Z,10.73
2017-12-06T08:16:08.374Z,10.10
2017-12-06T08:18:37.672Z,9.97
2017-12-06T08:21:07.881Z,11.00
2017-12-06T08:23:38.104Z,10.63
2017-12-06T08:26:07.192Z,11.20
2017-12-06T08:28:36.643Z,10.17
2017-12-06T08:31:06.088Z,10.50
2017-12-06T08:33:35.583Z,10.13
2017-12-06T08:36:04.993Z,9.30
2017-12-06T08:38:34.141Z,10.13
2017-12-06T08:41:03.389Z,10.43
2017-12-06T08:43:32.900Z,10.53
2017-12-06T08:46:02.403Z,10.47
2017-12-06T08:48:31.826Z,10.27
2017-12-06T08:51:00.929Z,10.83
2017-12-06T08:53:30.654Z,11.00
2017-12-06T08:56:00.074Z,10.53
2017-12-06T08:58:29.495Z,10.70
2017-12-06T09:00:58.612Z,10.97
2017-12-06T09:03:27.702Z,10.57
2017-12-06T09:05:57.197Z,11.00
2017-12-06T09:08:26.726Z,10.43
2017-12-06T09:10:55.519Z,11.03
2017-12-06T09:13:24.329Z,9.63
2017-12-06T09:15:54.275Z,10.37
2017-12-06T09:18:23.388Z,9.77
2017-12-06T09:20:53.075Z,9.90
2017-12-06T09:23:22.316Z,10.67
2017-12-06T09:25:51.756Z,10.87
2017-12-06T09:28:21.188Z,9.43
2017-12-06T09:30:51.407Z,10.43
2017-12-06T09:33:21.282Z,10.60
2017-12-06T09:35:50.704Z,9.80
2017-12-06T09:38:20.166Z,10.10
2017-12-06T09:40:49.626Z,10.00
2017-12-06T09:43:19.127Z,10.43
2017-12-06T09:45:48.988Z,10.27
2017-12-06T09:48:18.445Z,9.50
2017-12-06T09:50:48.354Z,10.47
2017-12-06T09:53:17.770Z,11.17
2017-12-06T09:55:47.200Z,10.53
2017-12-06T09:58:17.408Z,10.03
2017-12-06T10:00:46.865Z,9.57
2017-12-06T10:03:16.317Z,9.10
2017-12-06T10:05:45.763Z,10.77
2017-12-06T10:08:15.184Z,9.43
2017-12-06T10:10:44.628Z,9.47
2017-12-06T10:13:15.194Z,10.17
2017-12-06T10:15:44.663Z,9.30
2017-12-06T10:18:14.147Z,9.70
2017-12-06T10:20:43.967Z,9.17
2017-12-06T10:23:13.401Z,8.83
2017-12-06T10:25:42.492Z,9.60
2017-12-06T10:28:13.071Z,9.80
2017-12-06T10:30:42.219Z,9.53
2017-12-06T10:33:11.295Z,9.50
2017-12-06T10:35:40.187Z,9.57
2017-12-06T10:38:09.611Z,10.00
2017-12-06T10:40:40.208Z,11.60
2017-12-06T10:43:09.657Z,9.87
2017-12-06T10:45:38.539Z,11.10
2017-12-06T10:48:08.036Z,9.20
2017-12-06T10:50:37.465Z,9.70
2017-12-06T10:53:06.892Z,10.17
2017-12-06T10:55:36.660Z,10.13
2017-12-06T10:58:06.075Z,9.90
2017-12-06T11:00:35.532Z,10.23
2017-12-06T11:03:05.240Z,9.23
2017-12-06T11:05:34.718Z,10.63
2017-12-06T11:08:04.161Z,9.97
2017-12-06T11:10:34.639Z,9.73
2017-12-06T11:13:04.097Z,9.40
2017-12-06T11:15:33.543Z,10.63
2017-12-06T11:18:02.988Z,10.80
2017-12-06T11:20:32.420Z,10.60
2017-12-06T11:23:01.883Z,10.43
2017-12-06T11:25:32.987Z,10.00
2017-12-06T11:28:02.431Z,10.03
2017-12-06T11:30:31.858Z,10.57
2017-12-06T11:33:02.063Z,10.40
2017-12-06T11:35:31.516Z,9.70
2017-12-06T11:38:01.715Z,10.13
2017-12-06T11:40:31.494Z,10.97
2017-12-06T11:43:00.964Z,10.93
2017-12-06T11:45:30.391Z,9.43
2017-12-06T11:48:00.590Z,9.87
2017-12-06T11:50:30.035Z,11.43
2017-12-06T11:52:59.463Z,9.97
2017-12-06T11:55:30.026Z,8.93
2017-12-06T11:57:59.509Z,10.23
2017-12-06T12:00:29.071Z,10.73
2017-12-06T12:02:58.323Z,10.43
2017-12-06T12:05:27.779Z,10.73
2017-12-06T12:07:57.283Z,10.47
2017-12-06T12:10:27.029Z,10.27
2017-12-06T12:12:56.451Z,10.53
2017-12-06T12:15:25.591Z,10.23
2017-12-06T12:17:55.889Z,9.87
2017-12-06T12:20:25.375Z,11.73
2017-12-06T12:22:55.571Z,10.73
2017-12-06T12:25:25.297Z,10.37
2017-12-06T12:27:54.743Z,9.93
2017-12-06T12:30:24.169Z,10.50
2017-12-06T12:32:54.745Z,10.50
2017-12-06T12:35:24.178Z,10.63
2017-12-06T12:37:52.989Z,10.60
2017-12-06T12:40:21.586Z,11.23
2017-12-06T12:42:50.176Z,10.73
2017-12-06T12:45:18.739Z,10.63
2017-12-06T12:47:47.338Z,12.37
2017-12-06T12:50:15.889Z,11.73
2017-12-06T12:52:45.232Z,10.97
2017-12-06T12:55:13.807Z,11.23
2017-12-06T12:57:43.166Z,11.17
2017-12-06T13:00:11.728Z,12.23
2017-12-06T13:02:40.643Z,10.30
2017-12-06T13:05:09.208Z,12.20
2017-12-06T13:07:38.737Z,11.57
2017-12-06T13:10:08.089Z,11.93
2017-12-06T13:12:36.661Z,11.80
2017-12-06T13:15:05.284Z,11.57
2017-12-06T13:17:34.065Z,12.13
2017-12-06T13:20:02.772Z,11.57
2017-12-06T13:22:31.372Z,12.90
2017-12-06T13:24:59.960Z,11.53
2017-12-06T13:27:28.603Z,12.30
2017-12-06T13:29:57.151Z,11.80
2017-12-06T13:32:27.084Z,12.13
2017-12-06T13:34:55.652Z,12.10
2017-12-06T13:37:25.214Z,11.50
2017-12-06T13:39:54.192Z,11.90
2017-12-06T13:42:22.996Z,12.10
2017-12-06T13:44:51.774Z,12.80
2017-12-06T13:47:20.614Z,12.83
2017-12-06T13:49:49.411Z,12.23
2017-12-06T13:52:17.784Z,11.43
2017-12-06T13:54:46.505Z,13.07
2017-12-06T13:57:15.275Z,12.03
2017-12-06T13:59:44.204Z,11.50
2017-12-06T14:02:13.935Z,11.93
2017-12-06T14:04:43.393Z,11.87
2017-12-06T14:07:13.275Z,12.17
2017-12-06T14:09:42.497Z,11.87
2017-12-06T14:12:11.243Z,12.23
2017-12-06T14:14:39.825Z,11.33
2017-12-06T14:17:09.619Z,11.67
2017-12-06T14:19:38.517Z,10.63
2017-12-06T14:22:07.432Z,11.27
2017-12-06T14:24:36.219Z,11.43
2017-12-06T14:27:04.804Z,11.57
2017-12-06T14:29:33.379Z,10.83
2017-12-06T14:32:02.013Z,12.10
2017-12-06T14:34:30.779Z,11.87
2017-12-06T14:36:59.380Z,11.73
2017-12-06T14:39:28.374Z,12.60
2017-12-06T14:41:57.170Z,10.67
2017-12-06T14:44:25.756Z,11.67
2017-12-06T14:46:55.305Z,11.87
2017-12-06T14:49:24.078Z,11.50
2017-12-06T14:51:52.845Z,11.00
2017-12-06T14:54:21.726Z,10.47
2017-12-06T14:56:51.143Z,11.60
2017-12-06T14:59:19.707Z,10.90
2017-12-06T15:01:48.709Z,12.17
2017-12-06T15:04:17.087Z,12.03
2017-12-06T15:06:45.846Z,12.20
2017-12-06T15:09:15.008Z,10.97
2017-12-06T15:11:43.585Z,11.90
2017-12-06T15:14:12.624Z,11.10
2017-12-06T15:16:41.200Z,12.17
2017-12-06T15:19:09.787Z,11.83
2017-12-06T15:21:38.555Z,12.00
2017-12-06T15:24:07.730Z,12.57
2017-12-06T15:26:36.510Z,12.70
2017-12-06T15:29:05.611Z,12.97
2017-12-06T15:31:34.398Z,11.80
2017-12-06T15:34:03.948Z,12.27
2017-12-06T15:36:32.723Z,11.30
2017-12-06T15:39:01.560Z,12.60
2017-12-06T15:41:30.140Z,12.40
2017-12-06T15:43:59.292Z,11.37
2017-12-06T15:46:28.147Z,11.70
2017-12-06T15:48:56.953Z,12.30
2017-12-06T15:51:25.780Z,11.60
2017-12-06T15:53:55.196Z,12.13
2017-12-06T15:56:23.788Z,12.00
2017-12-06T15:58:52.689Z,11.80
2017-12-06T16:01:21.896Z,13.90
2017-12-06T16:03:51.002Z,13.53
2017-12-06T16:06:19.901Z,12.93
2017-12-06T16:08:48.483Z,13.80
2017-12-06T16:11:17.247Z,13.87
2017-12-06T16:13:46.775Z,14.33
2017-12-06T16:16:15.399Z,14.03
2017-12-06T16:18:44.542Z,14.10
2017-12-06T16:21:13.144Z,15.10
2017-12-06T16:23:42.275Z,15.13
2017-12-06T16:26:11.986Z,16.07
2017-12-06T16:28:40.642Z,16.33
2017-12-06T16:31:09.526Z,15.67
2017-12-06T16:33:38.446Z,15.87
2017-12-06T16:36:19.004Z,16.03
2017-12-06T16:38:48.251Z,15.20
2017-12-06T16:41:16.845Z,17.17
2017-12-06T16:43:46.160Z,17.93
2017-12-06T16:46:15.262Z,15.77
2017-12-06T16:48:44.521Z,16.63
2017-12-06T16:51:14.395Z,16.00
2017-12-06T16:53:43.292Z,17.20
2017-12-06T16:56:12.598Z,17.30
2017-12-06T16:58:41.517Z,18.93
2017-12-06T17:01:10.965Z,18.73
2017-12-06T17:03:40.653Z,18.33
2017-12-06T17:06:09.937Z,17.33
2017-12-06T17:08:38.506Z,17.80
2017-12-06T17:11:08.084Z,17.67
2017-12-06T17:13:37.034Z,17.40
2017-12-06T17:16:05.859Z,17.80
2017-12-06T17:18:35.431Z,18.43
2017-12-06T17:21:06.023Z,18.03
2017-12-06T17:23:34.819Z,19.20
2017-12-06T17:26:03.579Z,18.37
2017-12-06T17:31:45.938Z,18.87
2017-12-06T17:34:15.793Z,19.43
2017-12-06T17:36:47.558Z,18.20
2017-12-06T17:39:16.360Z,19.03
2017-12-06T17:41:45.292Z,18.50
2017-12-06T17:44:13.869Z,18.03
2017-12-06T17:46:43.172Z,19.67
2017-12-06T17:49:11.794Z,18.53
2017-12-06T17:51:41.727Z,21.42
2017-12-06T17:54:10.807Z,19.40
2017-12-06T17:56:39.760Z,19.90
2017-12-06T17:59:08.608Z,18.87
2017-12-06T18:01:38.137Z,20.03
2017-12-06T18:04:07.113Z,18.20
2017-12-06T18:06:36.164Z,18.67
2017-12-06T18:09:05.739Z,18.30
2017-12-06T18:11:35.898Z,18.13
2017-12-06T18:14:04.792Z,19.83
2017-12-06T18:16:33.879Z,19.57
2017-12-06T18:19:03.550Z,20.27
2017-12-06T18:21:32.336Z,19.33
2017-12-06T18:24:01.637Z,20.37
2017-12-06T18:26:30.404Z,19.37
2017-12-06T18:28:59.942Z,17.77
2017-12-06T18:31:28.573Z,19.13
2017-12-06T18:33:57.593Z,18.17
2017-12-06T18:36:27.713Z,18.93
2017-12-06T18:38:56.846Z,19.10
2017-12-06T18:41:26.300Z,19.57
2017-12-06T18:43:55.452Z,19.57
2017-12-06T18:46:25.835Z,18.83
2017-12-06T18:49:02.847Z,18.87
2017-12-06T18:51:35.255Z,17.63
2017-12-06T18:54:05.306Z,18.47
2017-12-06T18:56:34.796Z,18.63
2017-12-06T18:59:04.694Z,17.73
2017-12-06T19:01:34.928Z,19.27
2017-12-06T19:04:05.699Z,18.70
2017-12-06T19:06:34.833Z,18.37
2017-12-06T19:09:03.498Z,17.00
2017-12-06T19:11:32.776Z,17.17
2017-12-06T19:14:03.068Z,17.80
2017-12-06T19:16:32.552Z,17.77
2017-12-06T19:19:01.828Z,16.60
2017-12-06T19:21:30.620Z,16.63
2017-12-06T19:24:00.896Z,16.13
2017-12-06T19:26:30.756Z,17.23
2017-12-06T19:29:00.358Z,17.37
2017-12-06T19:31:29.592Z,17.77
2017-12-06T19:33:59.081Z,16.80
2017-12-06T19:36:28.961Z,16.87
2017-12-06T19:38:59.394Z,17.03
2017-12-06T19:41:28.848Z,16.50
2017-12-06T19:43:58.331Z,15.23
2017-12-06T19:46:28.102Z,16.80
2017-12-06T19:48:58.098Z,16.07
2017-12-06T19:51:27.569Z,17.13
2017-12-06T19:53:57.400Z,14.63
2017-12-06T19:56:27.000Z,15.13
2017-12-06T19:58:56.449Z,16.47
2017-12-06T20:01:26.302Z,16.10
2017-12-06T20:03:55.759Z,15.70
2017-12-06T20:06:25.323Z,15.73
2017-12-06T20:08:54.796Z,15.40
2017-12-06T20:11:24.324Z,15.23
2017-12-06T20:13:54.455Z,14.27
2017-12-06T20:16:23.996Z,16.67
2017-12-06T20:18:57.022Z,15.70
2017-12-06T20:21:26.715Z,14.77
2017-12-06T20:23:56.528Z,15.27
2017-12-06T20:26:25.951Z,14.13
2017-12-06T20:28:55.395Z,14.67
2017-12-06T20:31:26.071Z,14.53
2017-12-06T20:33:55.522Z,14.30
2017-12-06T20:36:24.853Z,14.70
2017-12-06T20:38:54.725Z,13.37
2017-12-06T20:41:24.336Z,15.03
2017-12-06T20:43:54.091Z,15.07
2017-12-06T20:46:24.033Z,14.53
2017-12-06T20:48:53.485Z,14.97
2017-12-06T20:51:24.101Z,15.10
2017-12-06T20:53:54.273Z,14.10
2017-12-06T20:56:24.329Z,13.73
2017-12-06T20:58:53.958Z,13.37
2017-12-06T21:01:25.081Z,13.03
2017-12-06T21:03:54.551Z,14.63
2017-12-06T21:06:29.609Z,14.23
2017-12-06T21:08:59.224Z,14.00
2017-12-06T21:11:28.661Z,14.30
2017-12-06T21:13:59.301Z,14.27
2017-12-06T21:16:28.739Z,12.93
2017-12-06T21:18:59.401Z,13.43
2017-12-06T21:21:28.497Z,13.30
2017-12-06T21:23:58.769Z,12.53
2017-12-06T21:26:28.258Z,13.07
2017-12-06T21:28:57.753Z,12.60
2017-12-06T21:31:27.192Z,13.20
2017-12-06T21:33:57.045Z,11.33
2017-12-06T21:36:26.582Z,12.50
2017-12-06T21:38:57.552Z,11.87
2017-12-06T21:41:27.326Z,10.50
2017-12-06T21:43:56.591Z,11.00
2017-12-06T21:46:27.101Z,9.90
2017-12-06T21:48:56.539Z,11.13
2017-12-06T21:51:26.149Z,10.60
2017-12-06T21:53:55.784Z,11.07
2017-12-06T21:56:25.210Z,10.53
2017-12-06T21:58:55.775Z,11.13
2017-12-06T22:01:25.308Z,11.30
2017-12-06T22:03:54.936Z,10.47
2017-12-06T22:06:24.838Z,10.83
2017-12-06T22:08:54.276Z,10.60
2017-12-06T22:11:23.749Z,11.30
2017-12-06T22:13:54.400Z,11.10
2017-12-06T22:16:24.767Z,11.53
2017-12-06T22:18:54.241Z,12.83
2017-12-06T22:21:23.691Z,12.20
2017-12-06T22:23:53.137Z,11.30
2017-12-06T22:26:22.945Z,11.33
2017-12-06T22:28:52.423Z,11.83
2017-12-06T22:31:22.685Z,10.63
2017-12-06T22:33:53.075Z,11.20
2017-12-06T22:36:23.530Z,10.40
2017-12-06T22:38:52.831Z,11.47
2017-12-06T22:41:23.050Z,12.10
2017-12-06T22:43:53.342Z,12.53
2017-12-06T22:46:22.589Z,13.43
2017-12-06T22:48:52.818Z,13.53
2017-12-06T22:51:22.257Z,13.53
2017-12-06T22:53:51.372Z,14.37
2017-12-06T22:56:21.187Z,13.30
2017-12-06T22:58:50.621Z,13.50
2017-12-06T23:01:20.046Z,13.33
2017-12-06T23:03:49.289Z,12.80
2017-12-06T23:06:19.750Z,13.93
2017-12-06T23:08:49.280Z,13.43
2017-12-06T23:11:18.800Z,13.53
2017-12-06T23:13:47.605Z,14.00
2017-12-06T23:16:16.806Z,14.20
2017-12-06T23:18:46.423Z,12.37
2017-12-06T23:21:15.611Z,13.23
2017-12-06T23:23:45.297Z,12.23
2017-12-06T23:26:14.830Z,13.87
2017-12-06T23:28:44.327Z,13.43
2017-12-06T23:31:14.253Z,14.67
2017-12-06T23:33:43.435Z,13.57
2017-12-06T23:36:13.134Z,12.10
2017-12-06T23:38:42.599Z,13.10
2017-12-06T23:41:11.469Z,14.23
2017-12-06T23:43:40.757Z,13.57
2017-12-06T23:46:10.670Z,12.83
2017-12-06T23:48:39.782Z,12.07
2017-12-06T23:51:09.227Z,11.70
2017-12-06T23:53:39.533Z,12.27
2017-12-06T23:56:08.974Z,12.67
2017-12-06T23:58:38.412Z,13.03
